Las Tapias, Argentina
Current Conditions -  °F | °C
As of 9:00 AM on Friday 28 Nov 2014 (Local Time) from SACO Reporting Station
Clear Clear  
Wind Chill: 73°   Ceiling: Unl
Heat Index: 73°   Visibility: 6mi
Dew Point: 52°   Wind: 18mph
Humidity: 47%   Direction: 20°NNE
Pressure: 30"   Gusts: NA
Location:  31.94°S, 65.07°W
Report Text: SACO 281200Z 02016KT CAVOK 23/11 Q1016
Loading
Personal Weather Stations






























Interactive Weather Map New forecast layout! Learn more

10-Day Weather Forecast

Advertisements
Track Severe Weather on mobile